sensor_id;sensor_type;location;lat;lon;timestamp;P1;durP1;ratioP1;P2;durP2;ratioP2
31424;SDS011;18054;51.572;7.372;2022-10-16T00:00:31;13.70;;;5.32;;
31424;SDS011;18054;51.572;7.372;2022-10-16T00:02:58;18.67;;;5.82;;
31424;SDS011;18054;51.572;7.372;2022-10-16T00:05:26;13.95;;;5.85;;
31424;SDS011;18054;51.572;7.372;2022-10-16T00:07:54;28.60;;;7.45;;
31424;SDS011;18054;51.572;7.372;2022-10-16T00:10:22;22.38;;;6.38;;
31424;SDS011;18054;51.572;7.372;2022-10-16T00:12:49;13.93;;;5.60;;
31424;SDS011;18054;51.572;7.372;2022-10-16T00:15:17;13.43;;;6.15;;
31424;SDS011;18054;51.572;7.372;2022-10-16T00:17:44;25.20;;;6.47;;
31424;SDS011;18054;51.572;7.372;2022-10-16T00:20:12;15.00;;;6.60;;
31424;SDS011;18054;51.572;7.372;2022-10-16T00:22:39;10.52;;;5.53;;
31424;SDS011;18054;51.572;7.372;2022-10-16T00:25:08;13.27;;;5.40;;
31424;SDS011;18054;51.572;7.372;2022-10-16T00:27:35;13.15;;;5.57;;
31424;SDS011;18054;51.572;7.372;2022-10-16T00:30:03;14.63;;;5.30;;
31424;SDS011;18054;51.572;7.372;2022-10-16T00:34:58;18.08;;;5.30;;
31424;SDS011;18054;51.572;7.372;2022-10-16T00:37:25;11.88;;;4.70;;
31424;SDS011;18054;51.572;7.372;2022-10-16T00:39:53;15.23;;;4.82;;
31424;SDS011;18054;51.572;7.372;2022-10-16T00:42:22;13.70;;;4.65;;
31424;SDS011;18054;51.572;7.372;2022-10-16T00:44:50;19.45;;;5.70;;
31424;SDS011;18054;51.572;7.372;2022-10-16T00:47:19;12.52;;;4.28;;
31424;SDS011;18054;51.572;7.372;2022-10-16T00:49:48;10.98;;;3.63;;
31424;SDS011;18054;51.572;7.372;2022-10-16T00:52:17;10.05;;;3.83;;
31424;SDS011;18054;51.572;7.372;2022-10-16T00:54:44;10.80;;;4.30;;
31424;SDS011;18054;51.572;7.372;2022-10-16T00:57:13;8.68;;;3.80;;
31424;SDS011;18054;51.572;7.372;2022-10-16T00:59:47;7.03;;;3.38;;
31424;SDS011;18054;51.572;7.372;2022-10-16T01:02:14;5.90;;;2.80;;
31424;SDS011;18054;51.572;7.372;2022-10-16T01:04:43;12.40;;;3.13;;
31424;SDS011;18054;51.572;7.372;2022-10-16T01:07:12;7.30;;;2.90;;
31424;SDS011;18054;51.572;7.372;2022-10-16T01:09:45;7.18;;;3.03;;
31424;SDS011;18054;51.572;7.372;2022-10-16T01:12:14;10.55;;;2.70;;
31424;SDS011;18054;51.572;7.372;2022-10-16T01:14:45;6.60;;;2.45;;
31424;SDS011;18054;51.572;7.372;2022-10-16T01:17:15;11.02;;;2.67;;
31424;SDS011;18054;51.572;7.372;2022-10-16T01:19:50;7.85;;;2.97;;
31424;SDS011;18054;51.572;7.372;2022-10-16T01:22:20;7.57;;;2.38;;
31424;SDS011;18054;51.572;7.372;2022-10-16T01:24:51;15.27;;;2.45;;
31424;SDS011;18054;51.572;7.372;2022-10-16T01:27:22;5.75;;;2.42;;
31424;SDS011;18054;51.572;7.372;2022-10-16T01:29:53;8.23;;;2.75;;
31424;SDS011;18054;51.572;7.372;2022-10-16T01:32:23;10.88;;;2.63;;
31424;SDS011;18054;51.572;7.372;2022-10-16T01:34:53;7.53;;;2.30;;
31424;SDS011;18054;51.572;7.372;2022-10-16T01:37:25;6.65;;;2.85;;
31424;SDS011;18054;51.572;7.372;2022-10-16T01:39:55;7.15;;;3.03;;
31424;SDS011;18054;51.572;7.372;2022-10-16T01:42:28;8.18;;;3.17;;
31424;SDS011;18054;51.572;7.372;2022-10-16T01:44:57;15.82;;;2.55;;
31424;SDS011;18054;51.572;7.372;2022-10-16T01:47:25;7.85;;;2.70;;
31424;SDS011;18054;51.572;7.372;2022-10-16T01:49:54;9.93;;;2.70;;
31424;SDS011;18054;51.572;7.372;2022-10-16T01:52:23;13.07;;;3.00;;
31424;SDS011;18054;51.572;7.372;2022-10-16T01:54:53;9.80;;;2.63;;
31424;SDS011;18054;51.572;7.372;2022-10-16T01:57:21;8.95;;;3.13;;
31424;SDS011;18054;51.572;7.372;2022-10-16T01:59:53;4.57;;;2.30;;
31424;SDS011;18054;51.572;7.372;2022-10-16T02:02:23;8.40;;;3.20;;
31424;SDS011;18054;51.572;7.372;2022-10-16T02:04:54;12.70;;;3.28;;
31424;SDS011;18054;51.572;7.372;2022-10-16T02:07:24;9.15;;;3.53;;
31424;SDS011;18054;51.572;7.372;2022-10-16T02:09:51;14.82;;;3.38;;
31424;SDS011;18054;51.572;7.372;2022-10-16T02:12:20;5.88;;;2.92;;
31424;SDS011;18054;51.572;7.372;2022-10-16T02:14:50;7.15;;;3.20;;
31424;SDS011;18054;51.572;7.372;2022-10-16T02:17:19;6.18;;;2.75;;
31424;SDS011;18054;51.572;7.372;2022-10-16T02:19:47;9.32;;;3.03;;
31424;SDS011;18054;51.572;7.372;2022-10-16T02:22:15;12.20;;;3.20;;
31424;SDS011;18054;51.572;7.372;2022-10-16T02:24:46;6.18;;;2.80;;
31424;SDS011;18054;51.572;7.372;2022-10-16T02:27:17;14.30;;;2.60;;
31424;SDS011;18054;51.572;7.372;2022-10-16T02:29:47;6.28;;;2.67;;
31424;SDS011;18054;51.572;7.372;2022-10-16T02:32:17;7.80;;;3.17;;
31424;SDS011;18054;51.572;7.372;2022-10-16T02:34:48;8.27;;;3.05;;
31424;SDS011;18054;51.572;7.372;2022-10-16T02:37:16;6.15;;;2.58;;
31424;SDS011;18054;51.572;7.372;2022-10-16T02:39:43;5.55;;;1.92;;
31424;SDS011;18054;51.572;7.372;2022-10-16T02:42:11;7.40;;;2.55;;
31424;SDS011;18054;51.572;7.372;2022-10-16T02:44:39;6.95;;;2.40;;
31424;SDS011;18054;51.572;7.372;2022-10-16T02:47:07;6.78;;;2.08;;
31424;SDS011;18054;51.572;7.372;2022-10-16T02:49:34;8.02;;;2.10;;
31424;SDS011;18054;51.572;7.372;2022-10-16T02:52:03;6.53;;;2.20;;
31424;SDS011;18054;51.572;7.372;2022-10-16T02:54:30;6.78;;;1.65;;
31424;SDS011;18054;51.572;7.372;2022-10-16T02:56:58;6.35;;;2.63;;
31424;SDS011;18054;51.572;7.372;2022-10-16T02:59:25;7.30;;;2.30;;
31424;SDS011;18054;51.572;7.372;2022-10-16T03:01:53;8.13;;;2.72;;
31424;SDS011;18054;51.572;7.372;2022-10-16T03:04:20;14.73;;;2.22;;
31424;SDS011;18054;51.572;7.372;2022-10-16T03:06:47;3.53;;;1.40;;
31424;SDS011;18054;51.572;7.372;2022-10-16T03:09:16;5.70;;;1.80;;
31424;SDS011;18054;51.572;7.372;2022-10-16T03:11:43;9.07;;;2.20;;
31424;SDS011;18054;51.572;7.372;2022-10-16T03:14:11;4.50;;;2.13;;
31424;SDS011;18054;51.572;7.372;2022-10-16T03:16:38;11.15;;;2.22;;
31424;SDS011;18054;51.572;7.372;2022-10-16T03:19:06;8.45;;;2.03;;
31424;SDS011;18054;51.572;7.372;2022-10-16T03:21:33;4.95;;;1.83;;
31424;SDS011;18054;51.572;7.372;2022-10-16T03:24:00;10.88;;;2.40;;
31424;SDS011;18054;51.572;7.372;2022-10-16T03:26:29;5.43;;;2.10;;
31424;SDS011;18054;51.572;7.372;2022-10-16T03:28:56;7.95;;;2.40;;
31424;SDS011;18054;51.572;7.372;2022-10-16T03:31:24;5.68;;;2.35;;
31424;SDS011;18054;51.572;7.372;2022-10-16T03:33:51;10.32;;;2.60;;
31424;SDS011;18054;51.572;7.372;2022-10-16T03:36:19;5.78;;;2.25;;
31424;SDS011;18054;51.572;7.372;2022-10-16T03:38:46;5.60;;;2.58;;
31424;SDS011;18054;51.572;7.372;2022-10-16T03:41:14;6.40;;;3.05;;
31424;SDS011;18054;51.572;7.372;2022-10-16T03:43:42;11.27;;;2.97;;
31424;SDS011;18054;51.572;7.372;2022-10-16T03:46:10;7.15;;;2.33;;
31424;SDS011;18054;51.572;7.372;2022-10-16T03:48:37;5.82;;;2.38;;
31424;SDS011;18054;51.572;7.372;2022-10-16T03:51:05;8.70;;;2.80;;
31424;SDS011;18054;51.572;7.372;2022-10-16T03:53:33;11.63;;;2.58;;
31424;SDS011;18054;51.572;7.372;2022-10-16T03:56:00;10.02;;;2.90;;
31424;SDS011;18054;51.572;7.372;2022-10-16T03:58:28;5.85;;;2.75;;
31424;SDS011;18054;51.572;7.372;2022-10-16T04:00:56;6.50;;;2.58;;
31424;SDS011;18054;51.572;7.372;2022-10-16T04:03:24;9.75;;;3.50;;
31424;SDS011;18054;51.572;7.372;2022-10-16T04:05:51;11.18;;;4.40;;
31424;SDS011;18054;51.572;7.372;2022-10-16T04:08:19;14.60;;;4.45;;
31424;SDS011;18054;51.572;7.372;2022-10-16T04:10:46;9.70;;;4.97;;
31424;SDS011;18054;51.572;7.372;2022-10-16T04:13:14;8.35;;;3.47;;
31424;SDS011;18054;51.572;7.372;2022-10-16T04:15:41;6.88;;;3.67;;
31424;SDS011;18054;51.572;7.372;2022-10-16T04:18:10;9.07;;;3.13;;
31424;SDS011;18054;51.572;7.372;2022-10-16T04:20:38;15.60;;;3.17;;
31424;SDS011;18054;51.572;7.372;2022-10-16T04:23:05;5.40;;;2.45;;
31424;SDS011;18054;51.572;7.372;2022-10-16T04:25:33;8.68;;;2.03;;
31424;SDS011;18054;51.572;7.372;2022-10-16T04:28:00;3.95;;;1.88;;
31424;SDS011;18054;51.572;7.372;2022-10-16T04:30:27;3.92;;;1.70;;
31424;SDS011;18054;51.572;7.372;2022-10-16T04:32:55;3.35;;;1.80;;
31424;SDS011;18054;51.572;7.372;2022-10-16T04:35:24;3.72;;;1.70;;
31424;SDS011;18054;51.572;7.372;2022-10-16T04:37:51;3.97;;;1.33;;
31424;SDS011;18054;51.572;7.372;2022-10-16T04:40:19;7.53;;;1.33;;
31424;SDS011;18054;51.572;7.372;2022-10-16T04:42:46;5.78;;;1.40;;
31424;SDS011;18054;51.572;7.372;2022-10-16T04:45:14;6.45;;;1.35;;
31424;SDS011;18054;51.572;7.372;2022-10-16T04:47:42;7.88;;;1.15;;
31424;SDS011;18054;51.572;7.372;2022-10-16T04:50:10;3.90;;;1.25;;
31424;SDS011;18054;51.572;7.372;2022-10-16T04:52:39;5.38;;;1.30;;
31424;SDS011;18054;51.572;7.372;2022-10-16T04:55:06;6.90;;;1.40;;
31424;SDS011;18054;51.572;7.372;2022-10-16T04:57:34;10.80;;;1.25;;
31424;SDS011;18054;51.572;7.372;2022-10-16T05:00:02;3.05;;;1.17;;
31424;SDS011;18054;51.572;7.372;2022-10-16T05:02:30;9.02;;;2.60;;
31424;SDS011;18054;51.572;7.372;2022-10-16T05:04:57;8.57;;;1.67;;
31424;SDS011;18054;51.572;7.372;2022-10-16T05:07:25;4.93;;;1.08;;
31424;SDS011;18054;51.572;7.372;2022-10-16T05:09:54;3.72;;;1.25;;
31424;SDS011;18054;51.572;7.372;2022-10-16T05:12:22;10.10;;;2.22;;
31424;SDS011;18054;51.572;7.372;2022-10-16T05:14:49;5.22;;;1.20;;
31424;SDS011;18054;51.572;7.372;2022-10-16T05:17:17;3.13;;;1.45;;
31424;SDS011;18054;51.572;7.372;2022-10-16T05:19:44;4.13;;;1.25;;
31424;SDS011;18054;51.572;7.372;2022-10-16T05:22:11;6.22;;;1.00;;
31424;SDS011;18054;51.572;7.372;2022-10-16T05:24:39;2.22;;;1.05;;
31424;SDS011;18054;51.572;7.372;2022-10-16T05:27:08;5.18;;;1.20;;
31424;SDS011;18054;51.572;7.372;2022-10-16T05:29:38;4.03;;;1.50;;
31424;SDS011;18054;51.572;7.372;2022-10-16T05:32:05;3.13;;;1.00;;
31424;SDS011;18054;51.572;7.372;2022-10-16T05:34:33;4.30;;;1.23;;
31424;SDS011;18054;51.572;7.372;2022-10-16T05:37:00;5.13;;;1.42;;
31424;SDS011;18054;51.572;7.372;2022-10-16T05:39:28;2.90;;;1.38;;
31424;SDS011;18054;51.572;7.372;2022-10-16T05:41:55;6.35;;;1.40;;
31424;SDS011;18054;51.572;7.372;2022-10-16T05:44:24;4.88;;;1.40;;
31424;SDS011;18054;51.572;7.372;2022-10-16T05:46:51;2.33;;;0.95;;
31424;SDS011;18054;51.572;7.372;2022-10-16T05:49:19;4.13;;;1.58;;
31424;SDS011;18054;51.572;7.372;2022-10-16T05:51:46;3.08;;;1.30;;
31424;SDS011;18054;51.572;7.372;2022-10-16T05:54:14;7.07;;;1.38;;
31424;SDS011;18054;51.572;7.372;2022-10-16T05:56:41;3.20;;;1.50;;
31424;SDS011;18054;51.572;7.372;2022-10-16T05:59:09;5.15;;;1.13;;
31424;SDS011;18054;51.572;7.372;2022-10-16T06:01:37;5.63;;;1.15;;
31424;SDS011;18054;51.572;7.372;2022-10-16T06:04:05;2.20;;;1.15;;
31424;SDS011;18054;51.572;7.372;2022-10-16T06:06:32;4.68;;;1.20;;
31424;SDS011;18054;51.572;7.372;2022-10-16T06:09:02;6.43;;;0.93;;
31424;SDS011;18054;51.572;7.372;2022-10-16T06:13:58;6.35;;;1.40;;
31424;SDS011;18054;51.572;7.372;2022-10-16T06:16:27;6.03;;;1.45;;
31424;SDS011;18054;51.572;7.372;2022-10-16T06:21:24;2.83;;;1.30;;
31424;SDS011;18054;51.572;7.372;2022-10-16T06:23:52;4.85;;;1.38;;
31424;SDS011;18054;51.572;7.372;2022-10-16T06:28:47;2.92;;;0.98;;
31424;SDS011;18054;51.572;7.372;2022-10-16T06:31:15;2.72;;;1.20;;
31424;SDS011;18054;51.572;7.372;2022-10-16T06:33:43;4.38;;;1.30;;
31424;SDS011;18054;51.572;7.372;2022-10-16T06:36:12;7.13;;;1.58;;
31424;SDS011;18054;51.572;7.372;2022-10-16T06:38:41;6.18;;;1.65;;
31424;SDS011;18054;51.572;7.372;2022-10-16T06:41:09;3.47;;;1.80;;
31424;SDS011;18054;51.572;7.372;2022-10-16T06:43:38;7.00;;;2.05;;
31424;SDS011;18054;51.572;7.372;2022-10-16T06:46:06;10.95;;;2.50;;
31424;SDS011;18054;51.572;7.372;2022-10-16T06:48:34;4.60;;;1.40;;
31424;SDS011;18054;51.572;7.372;2022-10-16T06:51:03;6.13;;;1.58;;
31424;SDS011;18054;51.572;7.372;2022-10-16T06:53:37;13.23;;;2.63;;
31424;SDS011;18054;51.572;7.372;2022-10-16T06:56:26;11.90;;;1.70;;
31424;SDS011;18054;51.572;7.372;2022-10-16T06:58:55;3.80;;;1.70;;
31424;SDS011;18054;51.572;7.372;2022-10-16T07:01:23;3.42;;;1.77;;
31424;SDS011;18054;51.572;7.372;2022-10-16T07:03:51;7.05;;;1.55;;
31424;SDS011;18054;51.572;7.372;2022-10-16T07:06:19;5.03;;;1.80;;
31424;SDS011;18054;51.572;7.372;2022-10-16T07:08:48;6.35;;;1.38;;
31424;SDS011;18054;51.572;7.372;2022-10-16T07:11:16;3.22;;;1.27;;
31424;SDS011;18054;51.572;7.372;2022-10-16T07:13:45;4.20;;;1.25;;
31424;SDS011;18054;51.572;7.372;2022-10-16T07:16:22;3.75;;;1.10;;
31424;SDS011;18054;51.572;7.372;2022-10-16T07:18:49;11.40;;;1.45;;
31424;SDS011;18054;51.572;7.372;2022-10-16T07:21:21;3.08;;;1.25;;
31424;SDS011;18054;51.572;7.372;2022-10-16T07:23:49;4.20;;;1.35;;
31424;SDS011;18054;51.572;7.372;2022-10-16T07:26:17;6.28;;;1.25;;
31424;SDS011;18054;51.572;7.372;2022-10-16T07:28:46;5.28;;;1.40;;
31424;SDS011;18054;51.572;7.372;2022-10-16T07:31:14;6.07;;;1.77;;
31424;SDS011;18054;51.572;7.372;2022-10-16T07:33:42;4.10;;;1.42;;
31424;SDS011;18054;51.572;7.372;2022-10-16T07:36:10;8.85;;;1.27;;
31424;SDS011;18054;51.572;7.372;2022-10-16T07:38:42;8.55;;;1.42;;
31424;SDS011;18054;51.572;7.372;2022-10-16T07:41:10;8.05;;;1.50;;
31424;SDS011;18054;51.572;7.372;2022-10-16T07:43:38;7.90;;;1.50;;
31424;SDS011;18054;51.572;7.372;2022-10-16T07:46:06;8.43;;;1.85;;
31424;SDS011;18054;51.572;7.372;2022-10-16T07:48:34;6.72;;;1.42;;
31424;SDS011;18054;51.572;7.372;2022-10-16T07:53:29;5.32;;;1.17;;
31424;SDS011;18054;51.572;7.372;2022-10-16T07:55:57;3.65;;;1.48;;
31424;SDS011;18054;51.572;7.372;2022-10-16T07:58:25;10.85;;;1.77;;
31424;SDS011;18054;51.572;7.372;2022-10-16T08:00:52;7.70;;;1.23;;
31424;SDS011;18054;51.572;7.372;2022-10-16T08:03:21;4.60;;;1.35;;
31424;SDS011;18054;51.572;7.372;2022-10-16T08:05:48;9.93;;;1.52;;
31424;SDS011;18054;51.572;7.372;2022-10-16T08:08:16;3.88;;;1.30;;
31424;SDS011;18054;51.572;7.372;2022-10-16T08:10:44;10.68;;;1.77;;
31424;SDS011;18054;51.572;7.372;2022-10-16T08:13:11;8.20;;;1.23;;
31424;SDS011;18054;51.572;7.372;2022-10-16T08:15:41;3.58;;;1.30;;
31424;SDS011;18054;51.572;7.372;2022-10-16T08:18:09;3.60;;;1.33;;
31424;SDS011;18054;51.572;7.372;2022-10-16T08:20:38;7.30;;;1.40;;
31424;SDS011;18054;51.572;7.372;2022-10-16T08:23:05;3.70;;;1.02;;
31424;SDS011;18054;51.572;7.372;2022-10-16T08:25:35;5.93;;;1.55;;
31424;SDS011;18054;51.572;7.372;2022-10-16T08:28:03;3.20;;;1.20;;
31424;SDS011;18054;51.572;7.372;2022-10-16T08:30:30;6.78;;;1.38;;
31424;SDS011;18054;51.572;7.372;2022-10-16T08:32:58;2.40;;;0.88;;
31424;SDS011;18054;51.572;7.372;2022-10-16T08:35:25;5.35;;;1.08;;
31424;SDS011;18054;51.572;7.372;2022-10-16T08:37:54;2.78;;;1.10;;
31424;SDS011;18054;51.572;7.372;2022-10-16T08:40:22;8.13;;;1.33;;
31424;SDS011;18054;51.572;7.372;2022-10-16T08:43:00;4.63;;;1.40;;
31424;SDS011;18054;51.572;7.372;2022-10-16T08:45:38;7.85;;;1.40;;
31424;SDS011;18054;51.572;7.372;2022-10-16T08:48:15;11.32;;;1.33;;
31424;SDS011;18054;51.572;7.372;2022-10-16T08:50:44;7.10;;;1.35;;
31424;SDS011;18054;51.572;7.372;2022-10-16T08:55:42;3.72;;;0.80;;
31424;SDS011;18054;51.572;7.372;2022-10-16T08:58:10;4.05;;;0.90;;
31424;SDS011;18054;51.572;7.372;2022-10-16T09:00:39;5.75;;;1.10;;
31424;SDS011;18054;51.572;7.372;2022-10-16T09:03:10;2.67;;;1.02;;
31424;SDS011;18054;51.572;7.372;2022-10-16T09:05:49;6.53;;;0.80;;
31424;SDS011;18054;51.572;7.372;2022-10-16T09:08:21;3.10;;;0.85;;
31424;SDS011;18054;51.572;7.372;2022-10-16T09:10:54;6.55;;;1.30;;
31424;SDS011;18054;51.572;7.372;2022-10-16T09:13:23;9.05;;;1.20;;
31424;SDS011;18054;51.572;7.372;2022-10-16T09:15:56;5.85;;;1.15;;
31424;SDS011;18054;51.572;7.372;2022-10-16T09:18:28;8.50;;;1.50;;
31424;SDS011;18054;51.572;7.372;2022-10-16T09:20:59;7.97;;;1.15;;
31424;SDS011;18054;51.572;7.372;2022-10-16T09:23:29;9.23;;;1.45;;
31424;SDS011;18054;51.572;7.372;2022-10-16T09:25:59;4.90;;;0.95;;
31424;SDS011;18054;51.572;7.372;2022-10-16T09:28:26;5.45;;;0.82;;
31424;SDS011;18054;51.572;7.372;2022-10-16T09:30:54;1.55;;;0.70;;
31424;SDS011;18054;51.572;7.372;2022-10-16T09:33:23;9.68;;;1.23;;
31424;SDS011;18054;51.572;7.372;2022-10-16T09:35:51;6.00;;;1.00;;
31424;SDS011;18054;51.572;7.372;2022-10-16T09:38:21;7.38;;;1.08;;
31424;SDS011;18054;51.572;7.372;2022-10-16T09:40:48;2.97;;;1.00;;
31424;SDS011;18054;51.572;7.372;2022-10-16T09:43:31;8.35;;;1.08;;
31424;SDS011;18054;51.572;7.372;2022-10-16T09:45:59;6.18;;;0.80;;
31424;SDS011;18054;51.572;7.372;2022-10-16T09:48:28;4.43;;;1.05;;
31424;SDS011;18054;51.572;7.372;2022-10-16T09:50:58;4.78;;;1.00;;
31424;SDS011;18054;51.572;7.372;2022-10-16T09:53:27;13.38;;;1.20;;
31424;SDS011;18054;51.572;7.372;2022-10-16T09:56:04;9.13;;;1.27;;
31424;SDS011;18054;51.572;7.372;2022-10-16T09:58:41;5.03;;;1.15;;
31424;SDS011;18054;51.572;7.372;2022-10-16T10:01:11;7.10;;;0.98;;
31424;SDS011;18054;51.572;7.372;2022-10-16T10:03:38;7.40;;;1.30;;
31424;SDS011;18054;51.572;7.372;2022-10-16T10:06:14;7.03;;;1.13;;
31424;SDS011;18054;51.572;7.372;2022-10-16T10:08:54;6.45;;;1.80;;
31424;SDS011;18054;51.572;7.372;2022-10-16T10:11:41;5.40;;;1.10;;
31424;SDS011;18054;51.572;7.372;2022-10-16T10:16:38;8.65;;;1.38;;
31424;SDS011;18054;51.572;7.372;2022-10-16T10:19:09;2.58;;;0.70;;
31424;SDS011;18054;51.572;7.372;2022-10-16T10:21:40;4.47;;;0.98;;
31424;SDS011;18054;51.572;7.372;2022-10-16T10:26:36;8.27;;;1.27;;
31424;SDS011;18054;51.572;7.372;2022-10-16T10:29:08;4.20;;;0.93;;
31424;SDS011;18054;51.572;7.372;2022-10-16T10:31:42;7.10;;;1.15;;
31424;SDS011;18054;51.572;7.372;2022-10-16T10:34:17;9.68;;;1.10;;
31424;SDS011;18054;51.572;7.372;2022-10-16T10:36:49;9.73;;;1.20;;
31424;SDS011;18054;51.572;7.372;2022-10-16T10:39:22;6.40;;;0.85;;
31424;SDS011;18054;51.572;7.372;2022-10-16T10:42:00;7.57;;;1.10;;
31424;SDS011;18054;51.572;7.372;2022-10-16T10:44:36;4.18;;;0.88;;
31424;SDS011;18054;51.572;7.372;2022-10-16T10:47:07;8.52;;;1.23;;
31424;SDS011;18054;51.572;7.372;2022-10-16T10:49:39;4.10;;;0.70;;
31424;SDS011;18054;51.572;7.372;2022-10-16T10:52:22;4.03;;;1.08;;
31424;SDS011;18054;51.572;7.372;2022-10-16T10:54:55;4.68;;;1.45;;
31424;SDS011;18054;51.572;7.372;2022-10-16T10:57:30;19.55;;;10.00;;
31424;SDS011;18054;51.572;7.372;2022-10-16T11:00:03;15.68;;;3.05;;
31424;SDS011;18054;51.572;7.372;2022-10-16T11:02:34;5.40;;;0.90;;
31424;SDS011;18054;51.572;7.372;2022-10-16T11:05:15;3.83;;;1.10;;
31424;SDS011;18054;51.572;7.372;2022-10-16T11:07:47;3.25;;;1.02;;
31424;SDS011;18054;51.572;7.372;2022-10-16T11:10:16;8.85;;;1.33;;
31424;SDS011;18054;51.572;7.372;2022-10-16T11:12:47;8.43;;;1.33;;
31424;SDS011;18054;51.572;7.372;2022-10-16T11:15:15;6.88;;;1.30;;
31424;SDS011;18054;51.572;7.372;2022-10-16T11:17:47;4.18;;;0.95;;
31424;SDS011;18054;51.572;7.372;2022-10-16T11:20:16;7.65;;;1.02;;
31424;SDS011;18054;51.572;7.372;2022-10-16T11:22:46;2.95;;;1.00;;
31424;SDS011;18054;51.572;7.372;2022-10-16T11:25:16;4.63;;;1.23;;
31424;SDS011;18054;51.572;7.372;2022-10-16T11:27:47;5.15;;;1.20;;
31424;SDS011;18054;51.572;7.372;2022-10-16T11:30:18;6.82;;;1.40;;
31424;SDS011;18054;51.572;7.372;2022-10-16T11:32:57;7.22;;;1.30;;
31424;SDS011;18054;51.572;7.372;2022-10-16T11:35:31;7.18;;;1.17;;
31424;SDS011;18054;51.572;7.372;2022-10-16T11:38:00;4.20;;;1.50;;
31424;SDS011;18054;51.572;7.372;2022-10-16T11:40:31;4.82;;;1.00;;
31424;SDS011;18054;51.572;7.372;2022-10-16T11:43:02;6.28;;;1.10;;
31424;SDS011;18054;51.572;7.372;2022-10-16T11:45:33;9.85;;;1.40;;
31424;SDS011;18054;51.572;7.372;2022-10-16T11:48:04;7.85;;;1.20;;
31424;SDS011;18054;51.572;7.372;2022-10-16T11:50:35;3.95;;;1.30;;
31424;SDS011;18054;51.572;7.372;2022-10-16T11:53:09;3.78;;;1.13;;
31424;SDS011;18054;51.572;7.372;2022-10-16T11:55:39;4.97;;;1.42;;
31424;SDS011;18054;51.572;7.372;2022-10-16T11:58:14;4.55;;;0.93;;
31424;SDS011;18054;51.572;7.372;2022-10-16T12:00:44;3.08;;;1.10;;
31424;SDS011;18054;51.572;7.372;2022-10-16T12:03:17;4.63;;;0.90;;
31424;SDS011;18054;51.572;7.372;2022-10-16T12:05:53;7.13;;;1.02;;
31424;SDS011;18054;51.572;7.372;2022-10-16T12:08:22;4.40;;;0.90;;
31424;SDS011;18054;51.572;7.372;2022-10-16T12:10:50;11.18;;;1.10;;
31424;SDS011;18054;51.572;7.372;2022-10-16T12:13:29;3.20;;;0.85;;
31424;SDS011;18054;51.572;7.372;2022-10-16T12:16:04;6.05;;;1.23;;
31424;SDS011;18054;51.572;7.372;2022-10-16T12:18:33;3.83;;;1.00;;
31424;SDS011;18054;51.572;7.372;2022-10-16T12:21:00;5.22;;;1.00;;
31424;SDS011;18054;51.572;7.372;2022-10-16T12:23:31;2.97;;;0.90;;
31424;SDS011;18054;51.572;7.372;2022-10-16T12:28:27;6.70;;;0.90;;
31424;SDS011;18054;51.572;7.372;2022-10-16T12:30:55;2.97;;;1.00;;
31424;SDS011;18054;51.572;7.372;2022-10-16T12:33:24;8.35;;;1.23;;
31424;SDS011;18054;51.572;7.372;2022-10-16T12:35:53;2.40;;;0.60;;
31424;SDS011;18054;51.572;7.372;2022-10-16T12:38:21;7.32;;;1.00;;
31424;SDS011;18054;51.572;7.372;2022-10-16T12:40:56;3.53;;;0.90;;
31424;SDS011;18054;51.572;7.372;2022-10-16T12:43:26;5.10;;;0.90;;
31424;SDS011;18054;51.572;7.372;2022-10-16T12:46:02;4.20;;;0.80;;
31424;SDS011;18054;51.572;7.372;2022-10-16T12:48:30;4.78;;;0.73;;
31424;SDS011;18054;51.572;7.372;2022-10-16T12:51:23;4.50;;;0.77;;
31424;SDS011;18054;51.572;7.372;2022-10-16T12:54:01;2.95;;;0.70;;
31424;SDS011;18054;51.572;7.372;2022-10-16T12:56:32;3.00;;;0.90;;
31424;SDS011;18054;51.572;7.372;2022-10-16T12:59:04;5.28;;;1.20;;
31424;SDS011;18054;51.572;7.372;2022-10-16T13:01:37;4.93;;;1.13;;
31424;SDS011;18054;51.572;7.372;2022-10-16T13:04:14;6.28;;;0.65;;
31424;SDS011;18054;51.572;7.372;2022-10-16T13:06:50;2.75;;;0.70;;
31424;SDS011;18054;51.572;7.372;2022-10-16T13:09:23;7.22;;;0.98;;
31424;SDS011;18054;51.572;7.372;2022-10-16T13:11:59;3.35;;;0.55;;
31424;SDS011;18054;51.572;7.372;2022-10-16T13:14:33;5.15;;;0.80;;
31424;SDS011;18054;51.572;7.372;2022-10-16T13:17:05;5.03;;;0.90;;
31424;SDS011;18054;51.572;7.372;2022-10-16T13:19:39;5.07;;;0.73;;
31424;SDS011;18054;51.572;7.372;2022-10-16T13:22:15;4.65;;;1.40;;
31424;SDS011;18054;51.572;7.372;2022-10-16T13:24:48;5.82;;;1.15;;
31424;SDS011;18054;51.572;7.372;2022-10-16T13:27:22;3.55;;;0.80;;
31424;SDS011;18054;51.572;7.372;2022-10-16T13:29:53;5.00;;;0.73;;
31424;SDS011;18054;51.572;7.372;2022-10-16T13:32:22;10.20;;;1.38;;
31424;SDS011;18054;51.572;7.372;2022-10-16T13:37:20;3.17;;;0.85;;
31424;SDS011;18054;51.572;7.372;2022-10-16T13:39:47;5.20;;;0.90;;
31424;SDS011;18054;51.572;7.372;2022-10-16T13:42:18;7.07;;;0.93;;
31424;SDS011;18054;51.572;7.372;2022-10-16T13:44:53;8.55;;;1.02;;
31424;SDS011;18054;51.572;7.372;2022-10-16T13:47:22;3.70;;;0.82;;
31424;SDS011;18054;51.572;7.372;2022-10-16T13:49:58;2.83;;;0.80;;
31424;SDS011;18054;51.572;7.372;2022-10-16T13:52:27;5.93;;;1.00;;
31424;SDS011;18054;51.572;7.372;2022-10-16T13:54:55;7.50;;;0.90;;
31424;SDS011;18054;51.572;7.372;2022-10-16T13:57:27;5.53;;;0.98;;
31424;SDS011;18054;51.572;7.372;2022-10-16T13:59:54;4.63;;;0.90;;
31424;SDS011;18054;51.572;7.372;2022-10-16T14:02:24;3.42;;;0.70;;
31424;SDS011;18054;51.572;7.372;2022-10-16T14:04:53;4.03;;;1.00;;
31424;SDS011;18054;51.572;7.372;2022-10-16T14:07:23;5.57;;;1.00;;
31424;SDS011;18054;51.572;7.372;2022-10-16T14:09:53;4.43;;;0.95;;
31424;SDS011;18054;51.572;7.372;2022-10-16T14:12:20;4.40;;;1.20;;
31424;SDS011;18054;51.572;7.372;2022-10-16T14:14:53;2.85;;;0.95;;
31424;SDS011;18054;51.572;7.372;2022-10-16T14:17:22;2.42;;;0.77;;
31424;SDS011;18054;51.572;7.372;2022-10-16T14:19:50;2.63;;;0.70;;
31424;SDS011;18054;51.572;7.372;2022-10-16T14:22:27;3.40;;;0.57;;
31424;SDS011;18054;51.572;7.372;2022-10-16T14:24:57;6.28;;;0.90;;
31424;SDS011;18054;51.572;7.372;2022-10-16T14:27:26;6.80;;;1.15;;
31424;SDS011;18054;51.572;7.372;2022-10-16T14:30:03;3.60;;;0.98;;
31424;SDS011;18054;51.572;7.372;2022-10-16T14:32:32;4.32;;;0.73;;
31424;SDS011;18054;51.572;7.372;2022-10-16T14:35:00;3.65;;;0.90;;
31424;SDS011;18054;51.572;7.372;2022-10-16T14:37:29;4.75;;;0.90;;
31424;SDS011;18054;51.572;7.372;2022-10-16T14:39:58;5.93;;;0.90;;
31424;SDS011;18054;51.572;7.372;2022-10-16T14:42:26;5.97;;;0.90;;
31424;SDS011;18054;51.572;7.372;2022-10-16T14:44:55;6.40;;;1.48;;
31424;SDS011;18054;51.572;7.372;2022-10-16T14:47:23;3.55;;;0.70;;
31424;SDS011;18054;51.572;7.372;2022-10-16T14:49:53;6.25;;;0.77;;
31424;SDS011;18054;51.572;7.372;2022-10-16T14:52:22;5.55;;;0.90;;
31424;SDS011;18054;51.572;7.372;2022-10-16T14:54:49;3.20;;;0.90;;
31424;SDS011;18054;51.572;7.372;2022-10-16T14:57:23;4.32;;;1.00;;
31424;SDS011;18054;51.572;7.372;2022-10-16T14:59:51;3.15;;;0.88;;
31424;SDS011;18054;51.572;7.372;2022-10-16T15:02:20;6.82;;;1.02;;
31424;SDS011;18054;51.572;7.372;2022-10-16T15:04:49;3.55;;;1.00;;
31424;SDS011;18054;51.572;7.372;2022-10-16T15:07:17;10.02;;;1.40;;
31424;SDS011;18054;51.572;7.372;2022-10-16T15:09:44;6.68;;;1.35;;
31424;SDS011;18054;51.572;7.372;2022-10-16T15:12:14;5.47;;;1.10;;
31424;SDS011;18054;51.572;7.372;2022-10-16T15:14:43;5.50;;;0.90;;
31424;SDS011;18054;51.572;7.372;2022-10-16T15:17:11;3.95;;;1.00;;
31424;SDS011;18054;51.572;7.372;2022-10-16T15:19:41;5.97;;;1.25;;
31424;SDS011;18054;51.572;7.372;2022-10-16T15:22:09;7.10;;;1.30;;
31424;SDS011;18054;51.572;7.372;2022-10-16T15:24:36;4.07;;;1.27;;